🇳🇱 VeloStatistics

👤 Alexander Mironov

NationaliteitRUS
Geboortedatum1984-01-21
Overlijdensdatum -
Lengte / Gewicht?? cm / ?? kg
Profzeges0
Profzeges 20260
Wedstrijddagen267

🚴 Ploegenhistorie

PloegCodeJaar
Katusha KAT 2011

🏆 Resultaten (159)

Datum Pos Wedstrijd UCI Ploeg
2009-05-01 15 2009 | Tour de Bretagne, FRA (1.5) 2.2 -
2009-04-19 10 2009 | Tour du Loir-et-Cher, FRA (19.4) 2.2 -
2009-04-19 9 2009 | Tour du Loir-et-Cher, FRA | Rit 5 (19.4) 2.2 -
2009-04-14 9 2009 | Tour du Loir-et-Cher, FRA | Rit 0 (14.4) 2.2 -
2009-04-05 73 2009 | Volta a Alentejo, POR (5.4) 2.1 -
2009-03-15 5 2009 | Paris - Troyes, FRA (15.3) 1.2 -
2008-07-22 7 2008 | Way to Pekin, RUS (22.7) 2.2 -
2008-07-20 5 2008 | Way to Pekin, RUS | Rit 5 (20.7) 2.2 -
2008-07-18 5 2008 | Way to Pekin, RUS | Rit 4 (18.7) 2.2 -
2008-07-17 10 2008 | Way to Pekin, RUS | Rit 3 (17.7) 2.2 -
2008-07-16 4 2008 | Way to Pekin, RUS | Rit 2 (16.7) 2.2 -
2008-07-15 1 2008 | Way to Pekin, RUS | Rit 1 (15.7) 2.2 -
2008-07-14 6 2008 | Way to Pekin, RUS | Rit 0 (14.7) 2.2 -
2008-05-24 13 2008 | G.P. Tartu, EST (24.5) 1.1 -
2008-05-23 5 2008 | EOS Tallinn G.P., EST (23.5) 1.1 -
2008-05-11 2 2008 | Five Rings of Moscow, RUS (11.5) 2.2 -
2008-05-11 5 2008 | Five Rings of Moscow, RUS | Rit 6 (11.5) 2.2 -
2008-05-10 3 2008 | Five Rings of Moscow, RUS | Rit 5 (10.5) 2.2 -
2008-05-08 2 2008 | Five Rings of Moscow, RUS | Rit 3 (8.5) 2.2 -
2008-05-07 6 2008 | Five Rings of Moscow, RUS | Rit 1 (7.5) 2.2 -
2008-05-07 3 2008 | Five Rings of Moscow, RUS | Rit 2 (7.5) 2.2 -
2008-04-20 7 2008 | Rhone-Alpes Isère Tour, FRA (20.4) 2.2 -
2008-04-20 1 2008 | Rhone-Alpes Isère Tour, FRA | Rit 4 (20.4) 2.2 -
2008-04-19 9 2008 | Rhone-Alpes Isère Tour, FRA | Rit 3 (19.4) 2.2 -
2008-04-18 3 2008 | Rhone-Alpes Isère Tour, FRA | Rit 2 (18.4) 2.2 -
2008-04-13 16 2008 | Circuit des Ardennes, FRA (13.4) 2.2 -
2008-04-06 14 2008 | Triptyque des Monts et Chateaux, BEL (6.4) 2.2 -
2008-03-23 81 2008 | G.P. Cholet - Pays de Loire, FRA (23.3) 1.1 -
2008-03-16 2 2008 | Paris - Troyes, FRA (16.3) 1.2 -
2008-03-02 10 2008 | Les 3 Jours de Vaucluse, FRA (2.3) 2.2 -
2008-02-29 9 2008 | Les 3 Jours de Vaucluse, FRA | Rit 1 (29.2) 2.2 -
2008-02-23 6 2008 | Les Boucles du Sud Ardèche, FRA (23.2) 1.2 -
2007-08-26 6 2007 | Szlakiem Walk Majora Hubala, POL (26.8) 2.2 -
2007-08-25 9 2007 | Szlakiem Walk Majora Hubala, POL | Rit 2 (25.8) 2.2 -
2007-08-24 10 2007 | Szlakiem Walk Majora Hubala, POL | Rit 1 (24.8) 2.2 -
2007-08-15 13 2007 | Puchar Ministra Obrony Narodowej, POL (15.8) 1.2 -
2007-08-12 12 2007 | Memorial Henryka Lasaka, POL (12.8) 1.1 -
2007-07-28 14 2007 | Dookola Mazowsza, POL (28.7) 2.2 -
2007-07-08 44 2007 | Course de Solidarnosc et des Champions Olympiques, POL (8.7) 2.1 -
2007-06-03 8 2007 | Riga G.P., LAT (3.6) 1.2 -
2007-05-11 9 2007 | Memorial Oleg Dyachenko, RUS (11.5) 1.2 -
2007-05-09 3 2007 | Five Rings of Moscow, RUS (9.5) 2.2 -
2007-05-08 2 2007 | Five Rings of Moscow, RUS | Rit 5 (8.5) 2.2 -
2007-05-06 4 2007 | Five Rings of Moscow, RUS | Rit 3 (6.5) 2.2 -
2007-05-05 3 2007 | Five Rings of Moscow, RUS | Rit 1 (5.5) 2.2 -
2007-05-05 5 2007 | Five Rings of Moscow, RUS | Rit 2 (5.5) 2.2 -
2007-05-03 2 2007 | Mayor Cup, RUS (3.5) 1.2 -
2005-09-10 3 2005 | Triptyque des Barrages, BEL | Rit 1 (10.9) 2.2 -
2005-08-14 3 2005 | Tour de Guadeloupe, FRA (14.8) 2.2 -
2005-08-14 4 2005 | Tour de Guadeloupe, FRA | Rit 11 (14.8) 2.2 -